Time;durP1;ratioP1;P1;durP2;ratioP2;P2;SDS_P1;SDS_P2;PMS_P1;PMS_P2;Temp;Humidity;BMP_temperature;BMP_pressure;BME280_temperature;BME280_humidity;BME280_pressure;Samples;Min_cycle;Max_cycle;Signal;HPM_P1;HPM_P2
2021/03/06 00:01:03;;;;;;;0.80;0.80;;;-2.80;99.90;;;-2.98;100.00;26674.56;5044550;28;20202;-73
2021/03/06 00:03:32;;;;;;;0.80;0.80;;;-2.80;99.90;;;-2.97;100.00;23261.31;5055427;28;20205;-72
2021/03/06 00:05:59;;;;;;;0.82;0.82;;;-2.80;99.90;;;-2.97;100.00;20421.88;5054247;28;20204;-73
2021/03/06 00:08:26;;;;;;;0.93;0.93;;;-2.90;99.90;;;-2.70;100.00;18779.75;5054851;28;20216;-73
2021/03/06 00:10:55;;;;;;;0.70;0.60;;;-2.80;99.90;;;-2.81;100.00;16013.44;5037546;28;20198;-73
2021/03/06 00:13:24;;;;;;;0.70;0.70;;;-2.80;99.90;;;-3.00;100.00;13800.25;5035959;28;20198;-73
2021/03/06 00:15:51;;;;;;;0.80;0.80;;;-2.80;99.90;;;-3.06;100.00;11687.44;5048439;28;20198;-73
2021/03/06 00:18:18;;;;;;;0.75;0.75;;;-2.90;99.90;;;-3.19;100.00;9194.13;5055284;28;20292;-73
2021/03/06 00:20:46;;;;;;;1.00;0.98;;;-2.90;99.90;;;-3.16;100.00;6792.75;5049128;28;20213;-73
2021/03/06 00:23:16;;;;;;;0.80;0.80;;;-3.00;99.90;;;-3.19;100.00;4130.59;5054912;28;20177;-72
2021/03/06 00:25:44;;;;;;;1.10;1.00;;;-3.00;99.90;;;-3.26;100.00;1088.34;5055026;28;20209;-73
2021/03/06 00:28:11;;;;;;;0.70;0.63;;;-2.90;99.90;;;-3.23;100.00;-1496.81;5053210;28;20213;-72
2021/03/06 00:30:39;;;;;;;0.80;0.80;;;-3.00;99.90;;;-3.20;100.00;-3949.75;5039872;28;20674;-73
2021/03/06 00:33:06;;;;;;;0.80;0.70;;;-3.10;99.90;;;-3.15;100.00;-6482.34;5054651;28;20602;-73
2021/03/06 00:35:33;;;;;;;0.80;0.80;;;-3.10;99.90;;;-3.26;100.00;-8621.19;5055026;28;20196;-74
2021/03/06 00:38:01;;;;;;;0.80;0.80;;;-3.10;99.90;;;-3.09;100.00;-10375.25;5040079;28;20182;-74
2021/03/06 00:40:29;;;;;;;0.93;0.93;;;-3.20;99.90;;;-3.07;100.00;-12308.97;5037134;28;20213;-73
2021/03/06 00:42:57;;;;;;;0.80;0.80;;;-3.20;99.90;;;-3.00;100.00;-13989.84;5038414;28;20192;-73
2021/03/06 00:45:23;;;;;;;0.70;0.70;;;-3.20;99.90;;;-3.12;100.00;-15288.53;5037014;28;20188;-73
2021/03/06 00:47:51;;;;;;;0.80;0.75;;;-3.10;99.90;;;-3.22;100.00;-16375.69;5053188;28;20199;-73
2021/03/06 00:50:28;;;;;;;0.80;0.70;;;-3.10;99.90;;;-3.22;100.00;-17302.69;5053964;28;20233;-73
2021/03/06 00:52:55;;;;;;;0.80;0.70;;;-3.10;99.90;;;-3.22;100.00;-18160.59;5066535;28;20217;-72
2021/03/06 00:55:26;;;;;;;0.80;0.70;;;-3.10;99.90;;;-3.35;100.00;-18900.06;5061328;28;20280;-72
2021/03/06 00:57:54;;;;;;;1.13;1.05;;;-3.00;99.90;;;-3.35;100.00;-19580.97;5047624;28;20205;-73
2021/03/06 01:00:22;;;;;;;0.90;0.90;;;-3.10;99.90;;;-3.30;100.00;-20118.75;5041637;28;20188;-73
2021/03/06 01:02:50;;;;;;;0.80;0.80;;;-3.10;99.90;;;-3.36;100.00;-20589.13;5051122;28;20209;-72
2021/03/06 01:05:17;;;;;;;1.17;1.08;;;-3.10;99.90;;;-3.37;100.00;-20589.00;5054787;28;20557;-73
2021/03/06 01:07:45;;;;;;;0.80;0.80;;;-3.20;99.90;;;-3.37;100.00;-20588.84;5054811;28;20193;-72
2021/03/06 01:10:17;;;;;;;0.73;0.70;;;-3.30;99.90;;;-3.46;100.00;-20586.47;5041676;28;20697;-73
2021/03/06 01:12:45;;;;;;;0.70;0.65;;;-3.30;99.90;;;-3.52;100.00;-20584.91;5036101;28;20240;-72
2021/03/06 01:15:13;;;;;;;0.90;0.90;;;-3.30;99.90;;;-3.64;100.00;-20581.56;5054046;28;20196;-72
2021/03/06 01:17:40;;;;;;;0.93;0.90;;;-3.20;99.90;;;-3.60;100.00;-20582.53;5054194;28;20185;-72
2021/03/06 01:20:09;;;;;;;0.80;0.80;;;-3.30;99.90;;;-3.58;100.00;-20583.22;5053813;28;20182;-72
2021/03/06 01:22:37;;;;;;;0.77;0.70;;;-3.40;99.90;;;-3.68;100.00;-20580.56;5054621;28;20253;-69
2021/03/06 01:25:06;;;;;;;0.90;0.90;;;-3.40;99.90;;;-3.66;100.00;-20580.97;5054096;28;20212;-73
2021/03/06 01:27:33;;;;;;;0.80;0.77;;;-3.40;99.90;;;-3.63;100.00;-20581.81;5054395;28;20192;-72
2021/03/06 01:30:02;;;;;;;0.73;0.70;;;-3.50;99.90;;;-3.55;100.00;-20584.06;5045586;28;20226;-73
2021/03/06 01:32:29;;;;;;;0.70;0.70;;;-3.50;99.90;;;-3.77;100.00;-20578.03;5054164;28;20548;-73
2021/03/06 01:34:57;;;;;;;0.80;0.70;;;-3.50;99.90;;;-3.78;100.00;-20577.63;5054203;28;20209;-73
2021/03/06 01:37:24;;;;;;;0.73;0.70;;;-3.40;99.90;;;-3.71;100.00;-20579.59;5053948;28;20178;-72
2021/03/06 01:39:51;;;;;;;0.70;0.60;;;-3.50;99.90;;;-3.61;100.00;-20582.25;5052073;28;20204;-72
2021/03/06 01:42:19;;;;;;;0.80;0.70;;;-3.40;99.90;;;-3.77;100.00;-20577.91;5052842;28;20225;-72
2021/03/06 01:44:46;;;;;;;0.90;0.90;;;-3.40;99.90;;;-3.81;100.00;-20576.91;5052681;28;20593;-73
2021/03/06 01:47:14;;;;;;;0.80;0.80;;;-3.50;99.90;;;-3.80;100.00;-20577.06;5052343;28;20200;-71
2021/03/06 01:49:41;;;;;;;0.70;0.70;;;-3.50;99.90;;;-3.88;100.00;-20575.09;5052152;28;20251;-71
2021/03/06 01:52:08;;;;;;;0.80;0.73;;;-3.60;99.90;;;-3.75;100.00;-20578.47;5052302;28;20211;-72
2021/03/06 01:54:42;;;;;;;0.80;0.80;;;-3.60;99.90;;;-3.81;100.00;-20576.78;5037055;28;20204;-72
2021/03/06 01:57:10;;;;;;;0.80;0.70;;;-3.60;99.90;;;-3.91;100.00;-20574.09;5052906;28;20247;-73
2021/03/06 01:59:39;;;;;;;0.90;0.90;;;-3.60;99.90;;;-3.88;100.00;-20575.09;5052088;28;20505;-73
2021/03/06 02:02:06;;;;;;;0.98;0.98;;;-3.50;99.90;;;-3.82;100.00;-20576.50;5050359;28;20213;-73
2021/03/06 02:04:35;;;;;;;0.80;0.70;;;-3.50;99.90;;;-3.53;100.00;-20584.63;5040755;28;20228;-72
2021/03/06 02:07:02;;;;;;;0.70;0.70;;;-3.50;99.90;;;-3.74;100.00;-20578.88;5051578;28;20665;-73
2021/03/06 02:09:31;;;;;;;0.80;0.80;;;-3.50;99.90;;;-3.84;100.00;-20575.94;5045556;28;20204;-72
2021/03/06 02:12:08;;;;;;;0.70;0.60;;;-3.50;99.90;;;-3.68;100.00;-20580.56;5043409;28;20193;-73
2021/03/06 02:15:10;;;;;;;0.70;0.70;;;-3.60;99.90;;;-3.74;100.00;-20578.75;5052416;28;20570;-73
2021/03/06 02:17:48;;;;;;;1.00;1.00;;;-3.60;99.90;;;-3.76;100.00;-20578.31;5045678;28;20551;-71
2021/03/06 02:20:56;;;;;;;0.80;0.80;;;-3.40;99.90;;;-3.85;100.00;-20575.66;5052158;28;20199;-72
2021/03/06 02:24:15;;;;;;;1.20;1.10;;;-3.60;99.90;;;-3.95;100.00;-20573.13;5049078;28;20193;-72
2021/03/06 02:26:54;;;;;;;0.80;0.80;;;-3.60;99.90;;;-3.91;100.00;-20574.25;5032752;28;20190;-72
2021/03/06 02:29:42;;;;;;;0.80;0.80;;;-3.70;99.90;;;-3.83;100.00;-20576.22;5033127;28;20264;-71
2021/03/06 02:32:19;;;;;;;0.70;0.60;;;-3.70;99.90;;;-3.98;100.00;-20572.13;5039819;28;20272;-72
2021/03/06 02:35:02;;;;;;;0.80;0.80;;;-3.70;99.90;;;-4.09;100.00;-20569.19;5038196;28;20217;-72
2021/03/06 02:37:33;;;;;;;0.85;0.85;;;-3.80;99.90;;;-3.93;100.00;-20573.69;5036573;28;20194;-73
2021/03/06 02:40:02;;;;;;;0.70;0.65;;;-3.80;99.90;;;-3.81;100.00;-20576.78;5038479;28;20197;-72
2021/03/06 02:42:30;;;;;;;0.75;0.70;;;-3.80;99.90;;;-3.90;100.00;-20574.53;5033304;28;20179;-72
2021/03/06 02:44:59;;;;;;;0.70;0.70;;;-3.80;99.90;;;-3.92;100.00;-20573.81;5044547;28;20657;-70
2021/03/06 02:47:29;;;;;;;0.88;0.88;;;-3.80;99.90;;;-4.03;100.00;-20570.72;5033432;28;20186;-71
2021/03/06 02:49:59;;;;;;;0.77;0.70;;;-3.90;99.90;;;-3.94;100.00;-20573.41;5042687;28;20224;-73
2021/03/06 02:52:27;;;;;;;0.90;0.90;;;-3.80;99.90;;;-3.66;100.00;-20581.13;5053019;28;20186;-73
2021/03/06 02:54:56;;;;;;;0.93;0.93;;;-3.70;99.90;;;-3.89;100.00;-20574.66;5048434;28;20229;-72
2021/03/06 02:57:54;;;;;;;0.82;0.82;;;-3.80;99.90;;;-3.85;100.00;-20575.66;5052328;28;20181;-73
2021/03/06 03:00:37;;;;;;;0.80;0.73;;;-3.80;99.90;;;-3.92;100.00;-20573.81;5051604;28;20262;-72
2021/03/06 03:03:16;;;;;;;0.70;0.65;;;-3.80;99.90;;;-3.91;100.00;-20574.09;5048303;28;20209;-72
2021/03/06 03:05:53;;;;;;;0.75;0.70;;;-3.90;99.90;;;-4.06;100.00;-20570.03;5051680;28;20551;-72
2021/03/06 03:08:27;;;;;;;0.70;0.60;;;-3.80;99.90;;;-4.09;100.00;-20569.03;5053130;28;20186;-72
2021/03/06 03:10:58;;;;;;;0.75;0.75;;;-3.90;99.90;;;-4.18;100.00;-20566.66;5051819;28;20217;-72
2021/03/06 03:13:35;;;;;;;0.70;0.70;;;-3.90;99.90;;;-4.17;100.00;-20566.94;5052617;28;20181;-72
2021/03/06 03:16:11;;;;;;;0.80;0.73;;;-4.00;99.90;;;-4.14;100.00;-20567.78;5049004;28;20195;-72
2021/03/06 03:18:45;;;;;;;0.80;0.80;;;-4.10;99.90;;;-4.18;100.00;-20566.78;5052638;28;20209;-72
2021/03/06 03:21:19;;;;;;;0.70;0.60;;;-4.00;99.90;;;-4.05;100.00;-20570.31;5051257;28;20174;-72
2021/03/06 03:23:54;;;;;;;0.75;0.70;;;-3.90;99.90;;;-3.91;100.00;-20574.25;5051366;28;20260;-71
2021/03/06 03:26:21;;;;;;;0.70;0.60;;;-4.00;99.90;;;-4.09;100.00;-20569.19;5069856;28;20220;-71
2021/03/06 03:28:50;;;;;;;0.80;0.80;;;-4.00;99.90;;;-4.11;100.00;-20568.63;5052918;28;20268;-74
2021/03/06 03:31:19;;;;;;;0.80;0.80;;;-3.90;99.90;;;-4.08;100.00;-20569.47;5050287;28;20309;-72
2021/03/06 03:33:47;;;;;;;1.60;1.52;;;-4.00;99.90;;;-4.13;100.00;-20568.06;5032617;28;20556;-71
2021/03/06 03:36:15;;;;;;;0.77;0.77;;;-4.10;99.90;;;-4.27;100.00;-20564.13;5036360;28;20225;-71
2021/03/06 03:38:45;;;;;;;0.80;0.80;;;-4.10;99.90;;;-4.21;100.00;-20565.81;5036548;28;20194;-71
2021/03/06 03:41:12;;;;;;;0.70;0.60;;;-4.00;99.90;;;-4.16;100.00;-20567.34;5036104;28;20191;-70
2021/03/06 03:43:41;;;;;;;0.70;0.63;;;-4.00;99.90;;;-4.14;100.00;-20567.78;5042980;28;20272;-70
2021/03/06 03:46:09;;;;;;;0.90;0.90;;;-4.10;99.90;;;-4.18;100.00;-20566.66;5054332;28;20201;-71
2021/03/06 03:48:42;;;;;;;0.70;0.70;;;-4.10;99.90;;;-4.16;100.00;-20567.22;5056194;28;20225;-70
2021/03/06 03:51:10;;;;;;;0.70;0.70;;;-4.20;99.90;;;-4.22;100.00;-20565.66;5055998;28;20205;-70
2021/03/06 03:53:39;;;;;;;0.70;0.60;;;-4.00;99.90;;;-4.26;100.00;-20564.41;5055352;28;20216;-70
2021/03/06 03:56:20;;;;;;;0.65;0.50;;;-4.00;99.90;;;-4.28;100.00;-20563.84;5042133;28;20247;-71
2021/03/06 03:58:47;;;;;;;0.70;0.70;;;-4.10;99.90;;;-4.26;100.00;-20564.41;5071531;28;20521;-70
2021/03/06 04:01:14;;;;;;;0.70;0.63;;;-4.20;99.90;;;-4.23;100.00;-20565.38;5052313;28;20201;-70
2021/03/06 04:03:42;;;;;;;1.02;1.00;;;-4.20;99.90;;;-4.28;100.00;-20563.97;5050833;28;20221;-71
2021/03/06 04:06:10;;;;;;;0.70;0.70;;;-4.20;99.90;;;-4.35;100.00;-20561.88;5055950;28;20209;-70
2021/03/06 04:08:37;;;;;;;0.82;0.82;;;-4.20;99.90;;;-4.19;100.00;-20566.38;5055801;28;20248;-71
2021/03/06 04:11:03;;;;;;;0.80;0.80;;;-4.20;99.90;;;-4.20;100.00;-20566.09;5036862;28;20714;-70
2021/03/06 04:13:31;;;;;;;0.80;0.80;;;-4.30;99.90;;;-4.29;100.00;-20563.56;5036080;28;20190;-71
2021/03/06 04:15:58;;;;;;;0.80;0.80;;;-4.20;99.90;;;-4.40;100.00;-20560.75;5042930;28;20201;-70
2021/03/06 04:18:25;;;;;;;0.70;0.70;;;-4.20;99.90;;;-4.43;100.00;-20559.91;5055325;28;20240;-71
2021/03/06 04:20:53;;;;;;;0.88;0.85;;;-4.20;99.90;;;-4.38;100.00;-20561.19;5038801;28;20214;-70
2021/03/06 04:23:20;;;;;;;0.80;0.80;;;-4.20;99.90;;;-4.41;100.00;-20560.47;5035489;28;20273;-70
2021/03/06 04:25:47;;;;;;;0.80;0.80;;;-4.30;99.90;;;-4.27;100.00;-20564.25;5051105;28;20661;-69
2021/03/06 04:28:14;;;;;;;0.70;0.70;;;-4.30;99.90;;;-4.39;100.00;-20560.88;5070965;28;20764;-71
2021/03/06 04:30:41;;;;;;;1.77;1.67;;;-4.30;99.90;;;-4.47;100.00;-20558.78;5053630;28;20208;-71
2021/03/06 04:33:07;;;;;;;0.82;0.82;;;-4.40;99.90;;;-4.35;100.00;-20561.88;5048987;28;20346;-71
2021/03/06 04:35:35;;;;;;;0.75;0.70;;;-4.40;99.90;;;-4.49;100.00;-20558.22;5035030;28;20186;-70
2021/03/06 04:38:02;;;;;;;0.77;0.77;;;-4.40;99.90;;;-4.55;100.00;-20556.53;5035018;28;20174;-71
2021/03/06 04:40:30;;;;;;;0.70;0.50;;;-4.40;99.90;;;-4.45;100.00;-20559.34;5037920;28;20198;-71
2021/03/06 04:42:57;;;;;;;0.93;0.93;;;-4.30;99.90;;;-4.19;100.00;-20566.50;5035307;28;20214;-71
2021/03/06 04:45:24;;;;;;;0.75;0.70;;;-4.30;99.90;;;-4.25;100.00;-20564.69;5036366;28;20185;-71
2021/03/06 04:47:52;;;;;;;0.98;0.98;;;-4.40;99.90;;;-4.38;100.00;-20561.31;5044366;28;20191;-71
2021/03/06 04:50:19;;;;;;;0.85;0.85;;;-4.40;99.90;;;-4.40;100.00;-20560.75;5036789;28;20641;-70
2021/03/06 04:52:46;;;;;;;0.88;0.88;;;-4.30;99.90;;;-4.41;100.00;-20560.47;5053825;28;20182;-70
2021/03/06 04:55:14;;;;;;;0.70;0.55;;;-4.30;99.90;;;-4.40;100.00;-20560.75;5054452;28;20201;-71
2021/03/06 04:57:41;;;;;;;0.82;0.82;;;-4.20;99.90;;;-4.39;100.00;-20561.03;5047579;28;20188;-71
2021/03/06 05:00:09;;;;;;;0.70;0.60;;;-4.20;99.90;;;-4.34;100.00;-20562.16;5035096;28;20197;-69
2021/03/06 05:02:36;;;;;;;0.70;0.65;;;-4.40;99.90;;;-4.46;100.00;-20558.91;5052652;28;20272;-69
2021/03/06 05:05:06;;;;;;;0.70;0.70;;;-4.40;99.90;;;-4.47;100.00;-20558.78;5041315;28;20193;-69
2021/03/06 05:07:33;;;;;;;0.80;0.80;;;-4.40;99.90;;;-4.48;100.00;-20558.50;5053239;28;20261;-70
2021/03/06 05:10:02;;;;;;;0.90;0.90;;;-4.50;99.90;;;-4.52;100.00;-20557.25;5035304;28;20260;-69
2021/03/06 05:12:29;;;;;;;1.00;1.00;;;-4.60;99.90;;;-4.61;100.00;-20554.97;5034663;28;20193;-71
2021/03/06 05:14:56;;;;;;;0.80;0.80;;;-4.50;99.90;;;-4.39;100.00;-20561.03;5036076;28;20244;-70
2021/03/06 05:17:23;;;;;;;0.70;0.60;;;-4.50;99.90;;;-4.47;100.00;-20558.78;5034749;28;20179;-70
2021/03/06 05:19:50;;;;;;;0.80;0.77;;;-4.50;99.90;;;-4.58;100.00;-20555.69;5034423;28;20272;-70
2021/03/06 05:22:18;;;;;;;0.70;0.70;;;-4.40;99.90;;;-4.63;100.00;-20554.44;5034445;28;20521;-70
2021/03/06 05:24:45;;;;;;;0.80;0.80;;;-4.50;99.90;;;-4.64;100.00;-20554.00;5041228;28;20209;-70
2021/03/06 05:27:31;;;;;;;0.77;0.77;;;-4.50;99.90;;;-4.59;100.00;-20555.41;5048889;28;20554;-70
2021/03/06 05:29:58;;;;;;;0.70;0.63;;;-4.60;99.90;;;-4.55;100.00;-20556.53;5050343;28;20208;-69
2021/03/06 05:32:25;;;;;;;0.90;0.90;;;-4.60;99.90;;;-4.49;100.00;-20558.22;5047411;28;20198;-70
2021/03/06 05:34:53;;;;;;;0.73;0.73;;;-4.70;99.90;;;-4.14;100.00;-20567.91;5035327;28;20214;-71
2021/03/06 05:37:20;;;;;;;0.70;0.60;;;-4.40;99.90;;;-4.12;100.00;-20568.34;5034353;28;20693;-71
2021/03/06 05:39:47;;;;;;;0.70;0.60;;;-4.20;99.90;;;-4.33;100.00;-20562.44;5035708;28;20253;-70
2021/03/06 05:42:14;;;;;;;0.73;0.70;;;-4.20;99.90;;;-4.32;100.00;-20562.72;5040953;28;20186;-70
2021/03/06 05:44:43;;;;;;;0.80;0.70;;;-4.40;99.90;;;-4.51;100.00;-20557.66;5053620;28;20198;-70
2021/03/06 05:47:13;;;;;;;0.75;0.75;;;-4.50;99.90;;;-4.46;100.00;-20559.06;5052433;28;20279;-71
2021/03/06 05:49:40;;;;;;;0.70;0.70;;;-4.50;99.90;;;-4.63;100.00;-20554.28;5048965;28;20214;-70
2021/03/06 05:52:08;;;;;;;0.70;0.63;;;-4.60;99.90;;;-4.63;100.00;-20554.28;5053032;28;20189;-69
2021/03/06 05:54:37;;;;;;;0.85;0.85;;;-4.70;99.90;;;-4.69;100.00;-20552.59;5059994;28;20215;-70
2021/03/06 05:57:08;;;;;;;0.70;0.65;;;-4.70;99.90;;;-4.77;100.00;-20550.50;5066186;28;20193;-70
2021/03/06 05:59:35;;;;;;;1.00;0.98;;;-4.70;99.90;;;-4.71;100.00;-20552.03;5051881;28;20252;-70
2021/03/06 06:02:04;;;;;;;0.70;0.60;;;-4.70;99.90;;;-4.74;100.00;-20551.19;5051380;28;20192;-70
2021/03/06 06:04:32;;;;;;;0.80;0.80;;;-4.70;99.90;;;-4.69;100.00;-20552.59;5051804;28;20709;-71
2021/03/06 06:07:02;;;;;;;0.70;0.70;;;-4.70;99.90;;;-4.68;100.00;-20552.88;5053042;28;20221;-70
2021/03/06 06:09:30;;;;;;;0.70;0.50;;;-4.70;99.90;;;-4.66;100.00;-20553.56;5051675;28;20215;-70
2021/03/06 06:11:57;;;;;;;0.70;0.70;;;-4.70;99.90;;;-4.66;100.00;-20553.56;5052318;28;20657;-70
2021/03/06 06:14:40;;;;;;;0.70;0.60;;;-4.70;99.90;;;-4.63;100.00;-20554.28;5053529;28;20188;-70
2021/03/06 06:17:09;;;;;;;0.70;0.60;;;-4.70;99.90;;;-4.60;100.00;-20555.13;5052155;28;20194;-69
2021/03/06 06:19:38;;;;;;;0.70;0.60;;;-4.70;99.90;;;-4.51;100.00;-20557.66;5033340;28;20301;-71
2021/03/06 06:22:16;;;;;;;0.80;0.80;;;-4.60;99.90;;;-4.48;100.00;-20558.50;5032077;28;20296;-71
2021/03/06 06:24:45;;;;;;;0.70;0.60;;;-4.50;99.90;;;-4.40;100.00;-20560.75;5039034;28;20606;-70
2021/03/06 06:27:20;;;;;;;0.70;0.70;;;-4.50;99.90;;;-4.42;100.00;-20560.19;5052008;28;20268;-69
2021/03/06 06:29:47;;;;;;;0.70;0.70;;;-4.50;99.90;;;-4.43;100.00;-20559.91;5033247;28;20252;-70
2021/03/06 06:32:17;;;;;;;0.70;0.50;;;-4.50;99.90;;;-4.45;100.00;-20559.22;5051870;28;20280;-72
2021/03/06 06:34:58;;;;;;;0.70;0.70;;;-4.50;99.90;;;-4.38;100.00;-20561.31;5036709;28;20784;-70
2021/03/06 06:37:25;;;;;;;0.70;0.63;;;-4.40;99.90;;;-4.22;100.00;-20565.66;5049338;28;20189;-71
2021/03/06 06:39:52;;;;;;;0.70;0.63;;;-4.30;99.90;;;-4.23;100.00;-20565.38;5039537;28;20220;-70
2021/03/06 06:42:29;;;;;;;0.88;0.88;;;-4.30;99.90;;;-4.10;100.00;-20568.91;5033839;28;20178;-70
2021/03/06 06:44:57;;;;;;;0.70;0.70;;;-4.20;99.90;;;-4.09;100.00;-20569.19;5047588;28;20518;-69
2021/03/06 06:47:34;;;;;;;0.70;0.70;;;-4.20;99.90;;;-4.03;100.00;-20570.88;5033644;28;20193;-71
2021/03/06 06:50:02;;;;;;;0.68;0.60;;;-4.20;99.90;;;-3.99;100.00;-20572.00;5032190;28;20306;-71
2021/03/06 06:52:37;;;;;;;1.05;0.98;;;-4.20;99.90;;;-3.97;100.00;-20572.56;5031490;28;20205;-71
2021/03/06 06:55:07;;;;;;;0.80;0.80;;;-4.10;99.90;;;-3.93;100.00;-20573.53;5042010;28;20212;-69
2021/03/06 06:57:34;;;;;;;0.85;0.85;;;-4.10;99.90;;;-3.83;100.00;-20576.22;5035385;28;20578;-70
2021/03/06 07:00:05;;;;;;;0.90;0.90;;;-4.00;99.90;;;-3.68;100.00;-20580.44;5036704;28;20717;-70
2021/03/06 07:02:34;;;;;;;0.70;0.65;;;-3.90;99.90;;;-3.64;100.00;-20581.56;5051001;28;20193;-69
2021/03/06 07:05:04;;;;;;;0.80;0.80;;;-3.80;99.90;;;-3.49;100.00;-20585.75;5050698;28;20517;-70
2021/03/06 07:07:37;;;;;;;0.90;0.90;;;-3.70;99.90;;;-3.41;100.00;-20588.00;5051810;28;20548;-70
2021/03/06 07:10:10;;;;;;;0.80;0.80;;;-3.70;99.90;;;-3.42;100.00;-20587.72;5054211;28;20210;-73
2021/03/06 07:12:39;;;;;;;0.80;0.80;;;-3.60;99.90;;;-3.28;100.00;-20591.38;5055897;28;20182;-71
2021/03/06 07:15:15;;;;;;;0.70;0.70;;;-3.60;99.90;;;-3.13;100.00;-20595.59;5056546;28;20529;-71
2021/03/06 07:17:45;;;;;;;0.70;0.60;;;-3.40;99.90;;;-2.98;100.00;-20599.81;5052867;28;20186;-71
2021/03/06 07:20:30;;;;;;;0.68;0.65;;;-3.30;99.90;;;-2.87;100.00;-20602.59;5041350;28;20289;-72
2021/03/06 07:23:10;;;;;;;0.70;0.60;;;-3.20;99.90;;;-2.75;100.00;-20605.97;5039339;28;20182;-72
2021/03/06 07:25:37;;;;;;;0.77;0.70;;;-3.10;99.90;;;-2.64;100.00;-20609.06;5045809;28;20252;-71
2021/03/06 07:28:05;;;;;;;0.80;0.80;;;-2.90;99.90;;;-2.42;100.00;-20615.09;5045255;28;20218;-71
2021/03/06 07:30:34;;;;;;;1.30;1.20;;;-2.80;99.90;;;-2.22;100.00;-20620.72;5046288;28;20276;-70
2021/03/06 07:33:05;;;;;;;0.70;0.60;;;-2.60;99.90;;;-2.04;100.00;-20625.47;5038893;28;20206;-72
2021/03/06 07:35:39;;;;;;;0.95;0.95;;;-2.40;99.90;;;-1.79;100.00;-20632.50;5038356;28;20182;-71
2021/03/06 07:38:07;;;;;;;0.70;0.70;;;-2.20;99.90;;;-1.55;100.00;-20639.06;5036430;28;20631;-72
2021/03/06 07:40:38;;;;;;;0.80;0.80;;;-2.00;99.90;;;-1.35;100.00;-20644.41;5051174;28;20209;-72
2021/03/06 07:43:13;;;;;;;0.80;0.75;;;-1.80;99.90;;;-1.37;100.00;-20643.97;5056462;28;20231;-72
2021/03/06 07:45:45;;;;;;;2.00;1.90;;;-1.80;99.90;;;-1.29;100.00;-20646.09;5055270;28;20181;-72
2021/03/06 07:48:17;;;;;;;0.77;0.70;;;-1.70;99.90;;;-1.15;100.00;-20649.88;5053978;28;20768;-71
2021/03/06 07:50:47;;;;;;;0.70;0.60;;;-1.50;99.90;;;-0.98;100.00;-20654.78;5046198;28;20210;-73
2021/03/06 07:53:16;;;;;;;0.80;0.70;;;-1.30;99.90;;;-0.69;100.00;-20662.63;5036387;28;20681;-72
2021/03/06 07:55:44;;;;;;;0.80;0.80;;;-1.10;99.90;;;-0.61;100.00;-20664.72;5054220;28;20193;-73
2021/03/06 07:58:13;;;;;;;0.70;0.65;;;-0.90;99.90;;;-0.53;100.00;-20667.09;5056204;28;20194;-73
2021/03/06 08:00:47;;;;;;;0.73;0.70;;;-0.90;99.90;;;-0.43;100.00;-20669.63;5061327;28;20253;-73
2021/03/06 08:03:39;;;;;;;0.75;0.70;;;-0.70;99.90;;;-0.25;100.00;-20674.66;5043689;28;20220;-73
2021/03/06 08:06:20;;;;;;;0.80;0.70;;;-0.50;99.90;;;-0.27;100.00;-20674.09;5048945;28;20206;-73
2021/03/06 08:09:08;;;;;;;0.70;0.70;;;-0.50;99.90;;;-0.12;100.00;-20678.16;5048721;28;20197;-74
2021/03/06 08:11:47;;;;;;;0.70;0.70;;;-0.30;99.90;;;-0.02;100.00;-20681.09;5036497;28;20662;-74
2021/03/06 08:14:37;;;;;;;0.73;0.70;;;-0.20;99.90;;;0.13;100.00;-20685.03;5037114;28;20551;-74
2021/03/06 08:17:32;;;;;;;0.70;0.70;;;-0.10;99.90;;;0.29;100.00;-20689.50;5052106;28;20205;-74
2021/03/06 08:20:01;;;;;;;0.70;0.70;;;0.10;99.90;;;0.45;100.00;-20693.97;5047555;28;20212;-74
2021/03/06 08:22:28;;;;;;;0.80;0.70;;;0.30;99.90;;;0.69;100.00;-20700.41;5053211;28;20194;-74
2021/03/06 08:24:55;;;;;;;0.70;0.60;;;0.50;99.90;;;1.17;100.00;-20713.69;5046475;28;20630;-74
2021/03/06 08:27:23;;;;;;;1.25;1.15;;;0.90;99.90;;;1.40;100.00;-20719.84;5028471;28;20256;-74
2021/03/06 08:29:56;;;;;;;1.08;0.85;;;1.20;99.90;;;1.59;100.00;-20725.03;5055036;28;20205;-74
2021/03/06 08:32:30;;;;;;;0.70;0.60;;;1.40;99.90;;;1.66;100.00;-20726.97;5054634;28;20724;-74
2021/03/06 08:34:59;;;;;;;8.55;1.48;;;1.40;99.90;;;1.91;100.00;-20733.81;5055113;28;20552;-74
2021/03/06 08:37:35;;;;;;;0.70;0.60;;;1.80;99.90;;;2.26;100.00;-20743.31;5055773;28;20193;-74
2021/03/06 08:40:15;;;;;;;0.70;0.60;;;1.90;99.90;;;2.79;100.00;-20757.97;5041845;28;20186;-75
2021/03/06 08:42:46;;;;;;;0.70;0.60;;;2.30;99.90;;;2.92;100.00;-20761.47;5034258;28;20210;-74
2021/03/06 08:45:19;;;;;;;1.30;1.20;;;2.30;99.90;;;3.02;100.00;-20764.25;5040680;28;20209;-74
2021/03/06 08:47:52;;;;;;;0.70;0.60;;;2.50;99.90;;;3.55;100.00;-20778.75;5055106;28;20197;-74
2021/03/06 08:50:23;;;;;;;0.70;0.60;;;2.80;99.90;;;3.41;100.00;-20774.72;5047730;28;20216;-74
2021/03/06 08:52:59;;;;;;;0.70;0.60;;;2.90;99.90;;;4.28;100.00;-20798.69;5056181;28;20863;-75
2021/03/06 08:55:29;;;;;;;1.43;1.00;;;3.20;99.90;;;4.30;100.00;-20799.25;5068510;28;20521;-75
2021/03/06 08:58:01;;;;;;;0.70;0.60;;;3.40;99.90;;;4.26;100.00;-20798.13;5063496;28;20428;-75
2021/03/06 09:00:32;;;;;;;0.70;0.60;;;3.40;99.90;;;4.80;100.00;-20812.91;5050198;28;20531;-75
2021/03/06 09:03:16;;;;;;;0.70;0.60;;;3.70;99.90;;;5.40;100.00;-20829.19;5055012;28;20444;-74
2021/03/06 09:05:45;;;;;;;0.70;0.50;;;3.80;99.90;;;5.01;100.00;-20818.63;5040341;28;20447;-75
2021/03/06 09:08:17;;;;;;;0.70;0.60;;;3.90;99.90;;;5.44;100.00;-20830.16;5051633;28;20449;-75
2021/03/06 09:10:45;;;;;;;0.70;0.50;;;4.20;99.90;;;4.97;100.00;-20817.34;5049066;28;20463;-75
2021/03/06 09:13:15;;;;;;;0.70;0.60;;;4.20;99.90;;;5.99;100.00;-20845.19;5048302;28;20445;-75
2021/03/06 09:15:49;;;;;;;0.70;0.60;;;4.50;99.90;;;5.76;100.00;-20839.06;5046654;28;20439;-74
2021/03/06 09:18:19;;;;;;;0.80;0.60;;;4.70;99.90;;;6.54;100.00;-20860.22;5054770;28;20460;-73
2021/03/06 09:20:52;;;;;;;0.80;0.70;;;5.20;99.90;;;7.41;100.00;-20883.81;5055233;28;20799;-75
2021/03/06 09:23:31;;;;;;;0.80;0.70;;;5.50;99.90;;;10.01;100.00;-20954.53;5052343;28;20526;-75
2021/03/06 09:26:04;;;;;;;0.80;0.70;;;5.50;99.90;;;8.63;100.00;-20917.13;5037921;28;20454;-76
2021/03/06 09:28:33;;;;;;;0.80;0.70;;;6.00;99.90;;;9.04;100.00;-20928.22;5035455;28;20411;-74
2021/03/06 09:31:04;;;;;;;0.80;0.70;;;6.50;99.90;;;9.65;100.00;-20944.72;5042986;28;20525;-75
2021/03/06 09:33:34;;;;;;;0.80;0.70;;;6.80;99.90;;;9.26;100.00;-20934.19;5036683;28;20521;-74
2021/03/06 09:36:06;;;;;;;0.80;0.70;;;7.10;99.90;;;9.77;100.00;-20947.88;5054670;28;20767;-75
2021/03/06 09:38:45;;;;;;;1.17;1.03;;;7.30;99.90;;;9.84;100.00;-20949.97;5054120;28;20521;-73
2021/03/06 09:41:14;;;;;;;0.70;0.60;;;7.10;99.90;;;9.73;100.00;-20946.78;5054257;28;20412;-74
2021/03/06 09:43:43;;;;;;;1.53;1.03;;;7.10;99.90;;;10.54;100.00;-20968.78;5051169;28;20421;-73
2021/03/06 09:46:17;;;;;;;0.70;0.60;;;7.60;99.90;;;10.61;100.00;-20970.88;5053685;28;20490;-73
2021/03/06 09:48:50;;;;;;;1.40;1.30;;;8.00;99.90;;;10.60;100.00;-20970.44;5053703;28;20492;-73
2021/03/06 09:51:20;;;;;;;0.70;0.60;;;8.30;99.90;;;10.92;100.00;-20979.16;5053071;28;20469;-73
2021/03/06 09:53:59;;;;;;;0.80;0.70;;;8.50;99.90;;;11.27;100.00;-20988.72;5053179;28;20403;-73
2021/03/06 09:56:27;;;;;;;0.80;0.70;;;8.80;99.90;;;11.98;100.00;-21007.78;5048294;28;20414;-73
2021/03/06 09:59:00;;;;;;;0.80;0.70;;;8.10;99.90;;;10.98;100.00;-20980.81;5052466;28;20450;-74
2021/03/06 10:01:28;;;;;;;0.87;0.77;;;8.40;99.90;;;11.06;100.00;-20983.03;5053427;28;20797;-74
2021/03/06 10:03:56;;;;;;;1.33;0.90;;;8.60;99.90;;;10.86;100.00;-20977.66;5040285;28;20431;-74
2021/03/06 10:06:31;;;;;;;1.23;1.13;;;8.60;99.90;;;11.32;100.00;-20989.94;5043016;28;20439;-74
2021/03/06 10:09:03;;;;;;;0.80;0.70;;;8.60;99.90;;;13.66;100.00;-21053.31;5064235;28;20452;-74
2021/03/06 10:11:33;;;;;;;1.30;1.20;;;8.60;99.90;;;12.11;100.00;-21011.22;5043420;28;20485;-73
2021/03/06 10:14:01;;;;;;;1.40;0.90;;;8.50;99.90;;;11.86;98.00;-21004.59;5043330;28;20391;-73
2021/03/06 10:16:29;;;;;;;0.70;0.60;;;8.40;99.90;;;11.28;99.08;-20988.97;5052470;28;20479;-73
2021/03/06 10:19:01;;;;;;;0.73;0.70;;;9.00;99.90;;;11.94;100.00;-21006.81;5040569;28;20459;-73
2021/03/06 10:21:29;;;;;;;0.70;0.60;;;9.60;99.90;;;12.18;100.00;-21013.16;5048039;28;20795;-73
2021/03/06 10:24:02;;;;;;;0.70;0.60;;;10.30;96.80;;;12.76;95.19;-21029.03;5068419;28;20421;-72